sensor_id;sensor_type;location;lat;lon;timestamp;temperature;humidity
31387;DHT22;69978;50.096;8.448;2023-06-14T00:01:17;18.70;99.90
31387;DHT22;69978;50.096;8.448;2023-06-14T00:03:45;18.70;99.90
31387;DHT22;69978;50.096;8.448;2023-06-14T00:06:12;18.70;99.90
31387;DHT22;69978;50.096;8.448;2023-06-14T00:08:38;18.70;99.90
31387;DHT22;69978;50.096;8.448;2023-06-14T00:11:05;18.60;99.90
31387;DHT22;69978;50.096;8.448;2023-06-14T00:13:30;18.60;99.90
31387;DHT22;69978;50.096;8.448;2023-06-14T00:15:56;18.60;99.90
31387;DHT22;69978;50.096;8.448;2023-06-14T00:18:22;18.60;99.90
31387;DHT22;69978;50.096;8.448;2023-06-14T00:20:55;18.50;99.90
31387;DHT22;69978;50.096;8.448;2023-06-14T00:23:21;18.50;99.90
31387;DHT22;69978;50.096;8.448;2023-06-14T00:25:46;18.40;99.90
31387;DHT22;69978;50.096;8.448;2023-06-14T00:28:12;18.40;99.90
31387;DHT22;69978;50.096;8.448;2023-06-14T00:30:38;18.40;99.90
31387;DHT22;69978;50.096;8.448;2023-06-14T00:33:03;18.40;99.90
31387;DHT22;69978;50.096;8.448;2023-06-14T00:35:29;18.40;99.90
31387;DHT22;69978;50.096;8.448;2023-06-14T00:37:55;18.30;99.90
31387;DHT22;69978;50.096;8.448;2023-06-14T00:40:21;18.30;99.90
31387;DHT22;69978;50.096;8.448;2023-06-14T00:42:47;18.30;99.90
31387;DHT22;69978;50.096;8.448;2023-06-14T00:45:12;18.30;99.90
31387;DHT22;69978;50.096;8.448;2023-06-14T00:47:38;18.20;99.90
31387;DHT22;69978;50.096;8.448;2023-06-14T00:50:07;18.20;99.90
31387;DHT22;69978;50.096;8.448;2023-06-14T00:52:32;18.20;99.90
31387;DHT22;69978;50.096;8.448;2023-06-14T00:54:58;18.20;99.90
31387;DHT22;69978;50.096;8.448;2023-06-14T00:57:24;18.10;99.90
31387;DHT22;69978;50.096;8.448;2023-06-14T00:59:50;18.10;99.90
31387;DHT22;69978;50.096;8.448;2023-06-14T01:02:16;18.10;99.90
31387;DHT22;69978;50.096;8.448;2023-06-14T01:04:44;18.00;99.90
31387;DHT22;69978;50.096;8.448;2023-06-14T01:13:07;18.00;99.90
31387;DHT22;69978;50.096;8.448;2023-06-14T01:15:34;18.00;99.90
31387;DHT22;69978;50.096;8.448;2023-06-14T01:18:00;17.90;99.90
31387;DHT22;69978;50.096;8.448;2023-06-14T01:20:31;17.90;99.90
31387;DHT22;69978;50.096;8.448;2023-06-14T01:22:57;17.90;99.90
31387;DHT22;69978;50.096;8.448;2023-06-14T01:25:23;17.90;99.90
31387;DHT22;69978;50.096;8.448;2023-06-14T01:28:00;17.80;99.90
31387;DHT22;69978;50.096;8.448;2023-06-14T01:30:29;17.80;99.90
31387;DHT22;69978;50.096;8.448;2023-06-14T01:32:55;17.80;99.90
31387;DHT22;69978;50.096;8.448;2023-06-14T01:35:22;17.80;99.90
31387;DHT22;69978;50.096;8.448;2023-06-14T01:37:49;17.80;99.90
31387;DHT22;69978;50.096;8.448;2023-06-14T01:40:18;17.70;99.90
31387;DHT22;69978;50.096;8.448;2023-06-14T01:42:46;17.70;99.90
31387;DHT22;69978;50.096;8.448;2023-06-14T01:45:12;17.70;99.90
31387;DHT22;69978;50.096;8.448;2023-06-14T01:47:38;17.60;99.90
31387;DHT22;69978;50.096;8.448;2023-06-14T01:50:04;17.60;99.90
31387;DHT22;69978;50.096;8.448;2023-06-14T01:52:30;17.60;99.90
31387;DHT22;69978;50.096;8.448;2023-06-14T01:54:55;17.50;99.90
31387;DHT22;69978;50.096;8.448;2023-06-14T01:57:22;17.50;99.90
31387;DHT22;69978;50.096;8.448;2023-06-14T01:59:48;17.50;99.90
31387;DHT22;69978;50.096;8.448;2023-06-14T02:02:14;17.50;99.90
31387;DHT22;69978;50.096;8.448;2023-06-14T02:04:43;17.50;99.90
31387;DHT22;69978;50.096;8.448;2023-06-14T02:07:08;17.50;99.90
31387;DHT22;69978;50.096;8.448;2023-06-14T02:09:34;17.40;99.90
31387;DHT22;69978;50.096;8.448;2023-06-14T02:12:01;17.40;99.90
31387;DHT22;69978;50.096;8.448;2023-06-14T02:14:27;17.40;99.90
31387;DHT22;69978;50.096;8.448;2023-06-14T02:16:52;17.30;99.90
31387;DHT22;69978;50.096;8.448;2023-06-14T02:19:19;17.30;99.90
31387;DHT22;69978;50.096;8.448;2023-06-14T02:21:45;17.30;99.90
31387;DHT22;69978;50.096;8.448;2023-06-14T02:24:11;17.20;99.90
31387;DHT22;69978;50.096;8.448;2023-06-14T02:26:37;17.20;99.90
31387;DHT22;69978;50.096;8.448;2023-06-14T02:29:09;17.20;99.90
31387;DHT22;69978;50.096;8.448;2023-06-14T02:31:38;17.10;99.90
31387;DHT22;69978;50.096;8.448;2023-06-14T02:34:03;17.10;99.90
31387;DHT22;69978;50.096;8.448;2023-06-14T02:36:29;17.10;99.90
31387;DHT22;69978;50.096;8.448;2023-06-14T02:38:56;17.10;99.90
31387;DHT22;69978;50.096;8.448;2023-06-14T02:41:23;17.10;99.90
31387;DHT22;69978;50.096;8.448;2023-06-14T02:43:49;17.10;99.90
31387;DHT22;69978;50.096;8.448;2023-06-14T02:46:15;17.10;99.90
31387;DHT22;69978;50.096;8.448;2023-06-14T02:48:41;17.10;99.90
31387;DHT22;69978;50.096;8.448;2023-06-14T02:51:06;17.10;99.90
31387;DHT22;69978;50.096;8.448;2023-06-14T02:53:33;17.10;99.90
31387;DHT22;69978;50.096;8.448;2023-06-14T02:55:59;17.00;99.90
31387;DHT22;69978;50.096;8.448;2023-06-14T02:58:26;17.00;99.90
31387;DHT22;69978;50.096;8.448;2023-06-14T03:00:51;17.00;99.90
31387;DHT22;69978;50.096;8.448;2023-06-14T03:03:18;17.00;99.90
31387;DHT22;69978;50.096;8.448;2023-06-14T03:05:47;16.90;99.90
31387;DHT22;69978;50.096;8.448;2023-06-14T03:08:15;16.90;99.90
31387;DHT22;69978;50.096;8.448;2023-06-14T03:10:43;16.90;99.90
31387;DHT22;69978;50.096;8.448;2023-06-14T03:13:08;16.90;99.90
31387;DHT22;69978;50.096;8.448;2023-06-14T03:15:37;16.90;99.90
31387;DHT22;69978;50.096;8.448;2023-06-14T03:18:04;16.90;99.90
31387;DHT22;69978;50.096;8.448;2023-06-14T03:20:30;16.90;99.90
31387;DHT22;69978;50.096;8.448;2023-06-14T03:22:59;16.90;99.90
31387;DHT22;69978;50.096;8.448;2023-06-14T03:25:25;16.90;99.90
31387;DHT22;69978;50.096;8.448;2023-06-14T03:27:51;16.90;99.90
31387;DHT22;69978;50.096;8.448;2023-06-14T03:30:17;16.90;99.90
31387;DHT22;69978;50.096;8.448;2023-06-14T03:32:42;16.90;99.90
31387;DHT22;69978;50.096;8.448;2023-06-14T03:35:08;16.90;99.90
31387;DHT22;69978;50.096;8.448;2023-06-14T03:37:34;16.80;99.90
31387;DHT22;69978;50.096;8.448;2023-06-14T03:40:00;16.80;99.90
31387;DHT22;69978;50.096;8.448;2023-06-14T03:42:26;16.80;99.90
31387;DHT22;69978;50.096;8.448;2023-06-14T03:44:51;16.80;99.90
31387;DHT22;69978;50.096;8.448;2023-06-14T03:47:20;16.80;99.90
31387;DHT22;69978;50.096;8.448;2023-06-14T03:49:45;16.80;99.90
31387;DHT22;69978;50.096;8.448;2023-06-14T03:52:11;16.80;99.90
31387;DHT22;69978;50.096;8.448;2023-06-14T03:54:37;16.80;99.90
31387;DHT22;69978;50.096;8.448;2023-06-14T03:57:02;16.80;99.90
31387;DHT22;69978;50.096;8.448;2023-06-14T03:59:49;16.80;99.90
31387;DHT22;69978;50.096;8.448;2023-06-14T04:02:14;16.90;99.90
31387;DHT22;69978;50.096;8.448;2023-06-14T04:04:44;16.90;99.90
31387;DHT22;69978;50.096;8.448;2023-06-14T04:07:14;16.90;99.90
31387;DHT22;69978;50.096;8.448;2023-06-14T04:09:41;16.90;99.90
31387;DHT22;69978;50.096;8.448;2023-06-14T04:12:07;16.90;99.90
31387;DHT22;69978;50.096;8.448;2023-06-14T04:14:34;16.90;99.90
31387;DHT22;69978;50.096;8.448;2023-06-14T04:17:00;17.00;99.90
31387;DHT22;69978;50.096;8.448;2023-06-14T04:19:26;17.10;99.90
31387;DHT22;69978;50.096;8.448;2023-06-14T04:21:51;17.10;99.90
31387;DHT22;69978;50.096;8.448;2023-06-14T04:24:17;17.20;99.90
31387;DHT22;69978;50.096;8.448;2023-06-14T04:26:44;17.20;99.90
31387;DHT22;69978;50.096;8.448;2023-06-14T04:29:17;17.20;99.90
31387;DHT22;69978;50.096;8.448;2023-06-14T04:31:45;17.20;99.90
31387;DHT22;69978;50.096;8.448;2023-06-14T04:34:14;17.20;99.90
31387;DHT22;69978;50.096;8.448;2023-06-14T04:36:43;17.20;99.90
31387;DHT22;69978;50.096;8.448;2023-06-14T04:39:18;17.20;99.90
31387;DHT22;69978;50.096;8.448;2023-06-14T04:41:44;17.20;99.90
31387;DHT22;69978;50.096;8.448;2023-06-14T04:44:09;17.20;99.90
31387;DHT22;69978;50.096;8.448;2023-06-14T04:46:36;17.20;99.90
31387;DHT22;69978;50.096;8.448;2023-06-14T04:49:17;17.20;99.90
31387;DHT22;69978;50.096;8.448;2023-06-14T04:51:44;17.20;99.90
31387;DHT22;69978;50.096;8.448;2023-06-14T04:54:10;17.20;99.90
31387;DHT22;69978;50.096;8.448;2023-06-14T04:56:39;17.20;99.90
31387;DHT22;69978;50.096;8.448;2023-06-14T04:59:05;17.20;99.90
31387;DHT22;69978;50.096;8.448;2023-06-14T05:01:31;17.20;99.90
31387;DHT22;69978;50.096;8.448;2023-06-14T05:03:59;17.30;99.90
31387;DHT22;69978;50.096;8.448;2023-06-14T05:06:25;17.30;99.90
31387;DHT22;69978;50.096;8.448;2023-06-14T05:08:54;17.30;99.90
31387;DHT22;69978;50.096;8.448;2023-06-14T05:11:20;17.30;99.90
31387;DHT22;69978;50.096;8.448;2023-06-14T05:13:46;17.30;99.90
31387;DHT22;69978;50.096;8.448;2023-06-14T05:16:12;17.40;99.90
31387;DHT22;69978;50.096;8.448;2023-06-14T05:18:38;17.40;99.90
31387;DHT22;69978;50.096;8.448;2023-06-14T05:21:05;17.50;99.90
31387;DHT22;69978;50.096;8.448;2023-06-14T05:23:31;17.50;99.90
31387;DHT22;69978;50.096;8.448;2023-06-14T05:25:56;17.50;99.90
31387;DHT22;69978;50.096;8.448;2023-06-14T05:28:23;17.60;99.90
31387;DHT22;69978;50.096;8.448;2023-06-14T05:30:48;17.60;99.90
31387;DHT22;69978;50.096;8.448;2023-06-14T05:33:14;17.60;99.90
31387;DHT22;69978;50.096;8.448;2023-06-14T05:35:39;17.70;99.90
31387;DHT22;69978;50.096;8.448;2023-06-14T05:38:05;17.70;99.90
31387;DHT22;69978;50.096;8.448;2023-06-14T05:40:33;17.70;99.90
31387;DHT22;69978;50.096;8.448;2023-06-14T05:42:59;17.80;99.90
31387;DHT22;69978;50.096;8.448;2023-06-14T05:45:24;17.80;99.90
31387;DHT22;69978;50.096;8.448;2023-06-14T05:47:50;17.90;99.90
31387;DHT22;69978;50.096;8.448;2023-06-14T05:50:16;17.90;99.90
31387;DHT22;69978;50.096;8.448;2023-06-14T05:52:42;17.90;99.90
31387;DHT22;69978;50.096;8.448;2023-06-14T05:55:08;18.00;99.90
31387;DHT22;69978;50.096;8.448;2023-06-14T05:57:34;18.00;99.90
31387;DHT22;69978;50.096;8.448;2023-06-14T05:59:59;18.10;99.90
31387;DHT22;69978;50.096;8.448;2023-06-14T06:02:25;18.10;99.90
31387;DHT22;69978;50.096;8.448;2023-06-14T06:04:50;18.10;99.90
31387;DHT22;69978;50.096;8.448;2023-06-14T06:07:16;18.20;99.90
31387;DHT22;69978;50.096;8.448;2023-06-14T06:09:42;18.20;99.90
31387;DHT22;69978;50.096;8.448;2023-06-14T06:12:07;18.20;99.90
31387;DHT22;69978;50.096;8.448;2023-06-14T06:14:33;18.20;99.90
31387;DHT22;69978;50.096;8.448;2023-06-14T06:16:58;18.30;99.90
31387;DHT22;69978;50.096;8.448;2023-06-14T06:19:24;18.30;99.90
31387;DHT22;69978;50.096;8.448;2023-06-14T06:21:50;18.30;99.90
31387;DHT22;69978;50.096;8.448;2023-06-14T06:24:16;18.30;99.90
31387;DHT22;69978;50.096;8.448;2023-06-14T06:26:41;18.40;99.90
31387;DHT22;69978;50.096;8.448;2023-06-14T06:29:07;18.40;99.90
31387;DHT22;69978;50.096;8.448;2023-06-14T06:31:33;18.40;99.90
31387;DHT22;69978;50.096;8.448;2023-06-14T06:33:58;18.40;99.90
31387;DHT22;69978;50.096;8.448;2023-06-14T06:36:24;18.50;99.90
31387;DHT22;69978;50.096;8.448;2023-06-14T06:38:50;18.50;99.90
31387;DHT22;69978;50.096;8.448;2023-06-14T06:41:15;18.50;99.90
31387;DHT22;69978;50.096;8.448;2023-06-14T06:43:41;18.60;99.90
31387;DHT22;69978;50.096;8.448;2023-06-14T06:46:07;18.60;99.90
31387;DHT22;69978;50.096;8.448;2023-06-14T06:48:32;18.60;99.90
31387;DHT22;69978;50.096;8.448;2023-06-14T06:50:58;18.70;99.90
31387;DHT22;69978;50.096;8.448;2023-06-14T06:53:23;18.70;99.90
31387;DHT22;69978;50.096;8.448;2023-06-14T06:55:49;18.80;99.90
31387;DHT22;69978;50.096;8.448;2023-06-14T06:58:15;18.80;99.90
31387;DHT22;69978;50.096;8.448;2023-06-14T07:00:40;18.80;99.90
31387;DHT22;69978;50.096;8.448;2023-06-14T07:03:06;18.80;99.90
31387;DHT22;69978;50.096;8.448;2023-06-14T07:05:32;18.80;99.90
31387;DHT22;69978;50.096;8.448;2023-06-14T07:07:57;18.90;99.90
31387;DHT22;69978;50.096;8.448;2023-06-14T07:10:23;18.90;99.90
31387;DHT22;69978;50.096;8.448;2023-06-14T07:12:50;19.00;99.90
31387;DHT22;69978;50.096;8.448;2023-06-14T07:15:16;19.00;99.90
31387;DHT22;69978;50.096;8.448;2023-06-14T07:17:41;19.10;99.90
31387;DHT22;69978;50.096;8.448;2023-06-14T07:20:08;19.20;99.90
31387;DHT22;69978;50.096;8.448;2023-06-14T07:22:39;19.20;99.90
31387;DHT22;69978;50.096;8.448;2023-06-14T07:25:07;19.20;99.90
31387;DHT22;69978;50.096;8.448;2023-06-14T07:27:33;19.30;99.90
31387;DHT22;69978;50.096;8.448;2023-06-14T07:29:59;19.40;99.90
31387;DHT22;69978;50.096;8.448;2023-06-14T07:32:25;19.40;99.90
31387;DHT22;69978;50.096;8.448;2023-06-14T07:34:50;19.50;99.90
31387;DHT22;69978;50.096;8.448;2023-06-14T07:37:16;19.50;99.90
31387;DHT22;69978;50.096;8.448;2023-06-14T07:39:41;19.60;99.90
31387;DHT22;69978;50.096;8.448;2023-06-14T07:42:07;19.70;99.90
31387;DHT22;69978;50.096;8.448;2023-06-14T07:44:32;19.70;99.90
31387;DHT22;69978;50.096;8.448;2023-06-14T07:46:58;19.70;99.90
31387;DHT22;69978;50.096;8.448;2023-06-14T07:49:25;19.90;99.90
31387;DHT22;69978;50.096;8.448;2023-06-14T07:51:51;19.90;99.90
31387;DHT22;69978;50.096;8.448;2023-06-14T07:54:16;19.90;99.90
31387;DHT22;69978;50.096;8.448;2023-06-14T07:56:42;19.90;99.90
31387;DHT22;69978;50.096;8.448;2023-06-14T07:59:08;20.10;99.90
31387;DHT22;69978;50.096;8.448;2023-06-14T08:01:34;20.10;99.90
31387;DHT22;69978;50.096;8.448;2023-06-14T08:04:00;20.30;99.90
31387;DHT22;69978;50.096;8.448;2023-06-14T08:06:26;20.30;99.90
31387;DHT22;69978;50.096;8.448;2023-06-14T08:08:52;20.40;99.90
31387;DHT22;69978;50.096;8.448;2023-06-14T08:11:18;20.50;99.90
31387;DHT22;69978;50.096;8.448;2023-06-14T08:13:43;20.60;99.90
31387;DHT22;69978;50.096;8.448;2023-06-14T08:16:09;20.60;99.90
31387;DHT22;69978;50.096;8.448;2023-06-14T08:18:36;20.70;99.90
31387;DHT22;69978;50.096;8.448;2023-06-14T08:21:01;20.80;99.90
31387;DHT22;69978;50.096;8.448;2023-06-14T08:23:28;20.90;99.90
31387;DHT22;69978;50.096;8.448;2023-06-14T08:25:53;21.00;99.90
31387;DHT22;69978;50.096;8.448;2023-06-14T08:28:19;21.00;99.90
31387;DHT22;69978;50.096;8.448;2023-06-14T08:30:45;21.10;99.90
31387;DHT22;69978;50.096;8.448;2023-06-14T08:33:11;21.20;99.90
31387;DHT22;69978;50.096;8.448;2023-06-14T08:35:36;21.30;99.90
31387;DHT22;69978;50.096;8.448;2023-06-14T08:38:03;21.40;99.90
31387;DHT22;69978;50.096;8.448;2023-06-14T08:40:30;21.50;99.90
31387;DHT22;69978;50.096;8.448;2023-06-14T08:42:56;21.60;99.90
31387;DHT22;69978;50.096;8.448;2023-06-14T08:45:22;21.70;99.90
31387;DHT22;69978;50.096;8.448;2023-06-14T08:47:49;21.90;99.90
31387;DHT22;69978;50.096;8.448;2023-06-14T08:50:26;22.00;99.90
31387;DHT22;69978;50.096;8.448;2023-06-14T08:52:56;22.20;99.90
31387;DHT22;69978;50.096;8.448;2023-06-14T08:55:23;23.60;99.90
31387;DHT22;69978;50.096;8.448;2023-06-14T08:57:57;24.00;99.90
31387;DHT22;69978;50.096;8.448;2023-06-14T09:00:27;24.30;99.90
31387;DHT22;69978;50.096;8.448;2023-06-14T09:02:54;24.40;99.90
31387;DHT22;69978;50.096;8.448;2023-06-14T09:05:28;24.60;99.90
31387;DHT22;69978;50.096;8.448;2023-06-14T09:07:54;24.50;99.90
31387;DHT22;69978;50.096;8.448;2023-06-14T09:10:21;24.50;99.90
31387;DHT22;69978;50.096;8.448;2023-06-14T09:12:46;24.80;99.90
31387;DHT22;69978;50.096;8.448;2023-06-14T09:15:13;25.00;99.90
31387;DHT22;69978;50.096;8.448;2023-06-14T09:17:39;25.10;99.90
31387;DHT22;69978;50.096;8.448;2023-06-14T09:20:07;25.70;99.90
31387;DHT22;69978;50.096;8.448;2023-06-14T09:22:37;25.70;99.90
31387;DHT22;69978;50.096;8.448;2023-06-14T09:25:04;25.80;99.90
31387;DHT22;69978;50.096;8.448;2023-06-14T09:27:31;26.00;99.90
31387;DHT22;69978;50.096;8.448;2023-06-14T09:29:56;26.40;99.90
31387;DHT22;69978;50.096;8.448;2023-06-14T09:32:22;26.40;99.90
31387;DHT22;69978;50.096;8.448;2023-06-14T09:34:48;26.70;99.90
31387;DHT22;69978;50.096;8.448;2023-06-14T09:37:29;26.80;99.90
31387;DHT22;69978;50.096;8.448;2023-06-14T09:39:55;26.80;99.90
31387;DHT22;69978;50.096;8.448;2023-06-14T09:42:21;27.40;99.90
31387;DHT22;69978;50.096;8.448;2023-06-14T09:44:51;28.30;99.90
31387;DHT22;69978;50.096;8.448;2023-06-14T09:47:17;29.30;99.90
31387;DHT22;69978;50.096;8.448;2023-06-14T09:49:43;29.80;99.90
31387;DHT22;69978;50.096;8.448;2023-06-14T09:52:14;30.20;99.90
31387;DHT22;69978;50.096;8.448;2023-06-14T09:54:44;30.50;99.90
31387;DHT22;69978;50.096;8.448;2023-06-14T09:57:12;30.80;99.90
31387;DHT22;69978;50.096;8.448;2023-06-14T09:59:43;30.50;98.00
31387;DHT22;69978;50.096;8.448;2023-06-14T10:02:31;30.30;96.60
31387;DHT22;69978;50.096;8.448;2023-06-14T10:05:11;30.10;97.40
31387;DHT22;69978;50.096;8.448;2023-06-14T10:07:44;30.20;97.80
31387;DHT22;69978;50.096;8.448;2023-06-14T10:10:13;30.00;97.60
31387;DHT22;69978;50.096;8.448;2023-06-14T10:12:39;29.70;96.80
31387;DHT22;69978;50.096;8.448;2023-06-14T10:15:07;29.70;97.50
31387;DHT22;69978;50.096;8.448;2023-06-14T10:18:27;30.20;97.60
31387;DHT22;69978;50.096;8.448;2023-06-14T10:20:37;30.10;96.90
31387;DHT22;69978;50.096;8.448;2023-06-14T10:23:20;30.10;97.80
31387;DHT22;69978;50.096;8.448;2023-06-14T10:25:50;30.00;97.40
31387;DHT22;69978;50.096;8.448;2023-06-14T10:28:19;30.00;97.20
31387;DHT22;69978;50.096;8.448;2023-06-14T10:31:09;30.10;96.30
31387;DHT22;69978;50.096;8.448;2023-06-14T10:33:56;30.70;97.30
31387;DHT22;69978;50.096;8.448;2023-06-14T10:41:23;30.70;96.50
31387;DHT22;69978;50.096;8.448;2023-06-14T10:43:48;30.70;96.00
31387;DHT22;69978;50.096;8.448;2023-06-14T10:46:20;31.10;96.40
31387;DHT22;69978;50.096;8.448;2023-06-14T10:48:48;31.30;94.90
31387;DHT22;69978;50.096;8.448;2023-06-14T10:51:20;31.50;95.00
31387;DHT22;69978;50.096;8.448;2023-06-14T10:53:47;31.50;96.10
31387;DHT22;69978;50.096;8.448;2023-06-14T10:56:33;31.60;94.50
31387;DHT22;69978;50.096;8.448;2023-06-14T10:58:59;31.70;95.00
31387;DHT22;69978;50.096;8.448;2023-06-14T11:02:39;32.10;94.30
31387;DHT22;69978;50.096;8.448;2023-06-14T11:05:04;32.10;94.30
31387;DHT22;69978;50.096;8.448;2023-06-14T11:07:46;32.20;93.70
31387;DHT22;69978;50.096;8.448;2023-06-14T11:10:35;32.70;94.40
31387;DHT22;69978;50.096;8.448;2023-06-14T11:13:02;33.10;93.50
31387;DHT22;69978;50.096;8.448;2023-06-14T11:15:35;32.80;92.50
31387;DHT22;69978;50.096;8.448;2023-06-14T11:18:05;32.90;93.20
31387;DHT22;69978;50.096;8.448;2023-06-14T11:20:32;32.40;92.40
31387;DHT22;69978;50.096;8.448;2023-06-14T11:22:58;32.10;91.60
31387;DHT22;69978;50.096;8.448;2023-06-14T11:25:24;31.90;93.10
31387;DHT22;69978;50.096;8.448;2023-06-14T11:27:50;32.50;93.60
31387;DHT22;69978;50.096;8.448;2023-06-14T11:30:16;32.70;93.00
31387;DHT22;69978;50.096;8.448;2023-06-14T11:32:42;33.60;92.30
31387;DHT22;69978;50.096;8.448;2023-06-14T11:35:08;33.70;91.70
31387;DHT22;69978;50.096;8.448;2023-06-14T11:37:36;33.70;92.40
31387;DHT22;69978;50.096;8.448;2023-06-14T11:40:03;33.50;91.40
31387;DHT22;69978;50.096;8.448;2023-06-14T11:42:33;33.60;91.40
31387;DHT22;69978;50.096;8.448;2023-06-14T11:44:59;33.50;91.70
31387;DHT22;69978;50.096;8.448;2023-06-14T11:47:30;33.30;91.40
31387;DHT22;69978;50.096;8.448;2023-06-14T11:49:58;33.50;92.10
31387;DHT22;69978;50.096;8.448;2023-06-14T11:52:23;33.90;91.40
31387;DHT22;69978;50.096;8.448;2023-06-14T11:54:49;33.70;91.60
31387;DHT22;69978;50.096;8.448;2023-06-14T11:57:15;34.40;91.00
31387;DHT22;69978;50.096;8.448;2023-06-14T11:59:44;34.00;90.80
31387;DHT22;69978;50.096;8.448;2023-06-14T12:02:13;33.50;90.70
31387;DHT22;69978;50.096;8.448;2023-06-14T12:04:41;33.10;90.40
31387;DHT22;69978;50.096;8.448;2023-06-14T12:07:15;33.20;91.10
31387;DHT22;69978;50.096;8.448;2023-06-14T12:09:41;33.40;90.90
31387;DHT22;69978;50.096;8.448;2023-06-14T12:12:09;33.70;90.80
31387;DHT22;69978;50.096;8.448;2023-06-14T12:14:36;34.20;89.60
31387;DHT22;69978;50.096;8.448;2023-06-14T12:17:06;34.20;89.20
31387;DHT22;69978;50.096;8.448;2023-06-14T12:19:32;34.00;90.20
31387;DHT22;69978;50.096;8.448;2023-06-14T12:21:59;34.10;88.60
31387;DHT22;69978;50.096;8.448;2023-06-14T12:24:29;34.20;87.30
31387;DHT22;69978;50.096;8.448;2023-06-14T12:26:57;33.80;85.50
31387;DHT22;69978;50.096;8.448;2023-06-14T12:29:25;32.70;86.50
31387;DHT22;69978;50.096;8.448;2023-06-14T12:31:51;32.20;90.20
31387;DHT22;69978;50.096;8.448;2023-06-14T12:34:16;32.00;89.20
31387;DHT22;69978;50.096;8.448;2023-06-14T12:36:42;31.80;90.00
31387;DHT22;69978;50.096;8.448;2023-06-14T12:39:10;31.50;90.30
31387;DHT22;69978;50.096;8.448;2023-06-14T12:41:36;31.60;90.60
31387;DHT22;69978;50.096;8.448;2023-06-14T12:44:07;32.50;91.10
31387;DHT22;69978;50.096;8.448;2023-06-14T12:46:33;32.70;88.50
31387;DHT22;69978;50.096;8.448;2023-06-14T12:49:00;32.70;88.90
31387;DHT22;69978;50.096;8.448;2023-06-14T12:51:26;32.90;87.80
31387;DHT22;69978;50.096;8.448;2023-06-14T12:53:51;32.60;88.80
31387;DHT22;69978;50.096;8.448;2023-06-14T12:56:17;32.80;88.70
31387;DHT22;69978;50.096;8.448;2023-06-14T12:58:43;32.40;89.90
31387;DHT22;69978;50.096;8.448;2023-06-14T13:01:09;32.40;89.20
31387;DHT22;69978;50.096;8.448;2023-06-14T13:03:35;32.10;89.10
31387;DHT22;69978;50.096;8.448;2023-06-14T13:06:01;31.80;87.60
31387;DHT22;69978;50.096;8.448;2023-06-14T13:08:27;31.70;87.50
31387;DHT22;69978;50.096;8.448;2023-06-14T13:10:53;32.00;89.60
31387;DHT22;69978;50.096;8.448;2023-06-14T13:13:19;32.70;88.10
31387;DHT22;69978;50.096;8.448;2023-06-14T13:15:45;33.30;87.50
31387;DHT22;69978;50.096;8.448;2023-06-14T13:18:11;33.50;88.50
31387;DHT22;69978;50.096;8.448;2023-06-14T13:20:39;33.50;86.60
31387;DHT22;69978;50.096;8.448;2023-06-14T13:23:05;33.50;85.00
31387;DHT22;69978;50.096;8.448;2023-06-14T13:25:33;33.30;85.20
31387;DHT22;69978;50.096;8.448;2023-06-14T13:27:59;32.60;84.60
31387;DHT22;69978;50.096;8.448;2023-06-14T13:30:24;32.50;85.30
31387;DHT22;69978;50.096;8.448;2023-06-14T13:32:51;32.70;86.50
31387;DHT22;69978;50.096;8.448;2023-06-14T13:35:18;32.90;85.90
31387;DHT22;69978;50.096;8.448;2023-06-14T13:37:46;33.50;85.90
31387;DHT22;69978;50.096;8.448;2023-06-14T13:40:12;33.30;85.00
31387;DHT22;69978;50.096;8.448;2023-06-14T13:42:37;32.70;84.30
31387;DHT22;69978;50.096;8.448;2023-06-14T13:45:30;32.20;85.40
31387;DHT22;69978;50.096;8.448;2023-06-14T13:47:55;32.30;85.30
31387;DHT22;69978;50.096;8.448;2023-06-14T13:50:42;32.10;84.70
31387;DHT22;69978;50.096;8.448;2023-06-14T13:53:11;32.00;86.10
31387;DHT22;69978;50.096;8.448;2023-06-14T13:55:37;31.80;85.20
31387;DHT22;69978;50.096;8.448;2023-06-14T13:58:06;31.40;85.20
31387;DHT22;69978;50.096;8.448;2023-06-14T14:00:34;31.20;85.70
31387;DHT22;69978;50.096;8.448;2023-06-14T14:03:07;30.70;86.40
31387;DHT22;69978;50.096;8.448;2023-06-14T14:05:43;31.20;85.40
31387;DHT22;69978;50.096;8.448;2023-06-14T14:08:11;31.50;85.30
31387;DHT22;69978;50.096;8.448;2023-06-14T14:13:31;31.30;86.10
31387;DHT22;69978;50.096;8.448;2023-06-14T14:15:57;31.70;85.30
31387;DHT22;69978;50.096;8.448;2023-06-14T14:18:22;31.80;87.00
31387;DHT22;69978;50.096;8.448;2023-06-14T14:20:51;31.30;86.30
31387;DHT22;69978;50.096;8.448;2023-06-14T14:23:16;31.50;87.50
31387;DHT22;69978;50.096;8.448;2023-06-14T14:25:45;31.20;87.00
31387;DHT22;69978;50.096;8.448;2023-06-14T14:28:23;31.20;86.70
31387;DHT22;69978;50.096;8.448;2023-06-14T14:30:58;31.40;87.60
31387;DHT22;69978;50.096;8.448;2023-06-14T14:33:28;31.90;89.20
31387;DHT22;69978;50.096;8.448;2023-06-14T14:35:53;32.10;88.50
31387;DHT22;69978;50.096;8.448;2023-06-14T14:38:19;31.50;85.50
31387;DHT22;69978;50.096;8.448;2023-06-14T14:40:53;31.20;88.90
31387;DHT22;69978;50.096;8.448;2023-06-14T14:43:19;31.10;88.20
31387;DHT22;69978;50.096;8.448;2023-06-14T14:48:12;30.80;87.00
31387;DHT22;69978;50.096;8.448;2023-06-14T14:50:38;30.30;88.10
31387;DHT22;69978;50.096;8.448;2023-06-14T14:53:05;30.20;88.50
31387;DHT22;69978;50.096;8.448;2023-06-14T14:55:31;30.10;87.80
31387;DHT22;69978;50.096;8.448;2023-06-14T14:57:57;29.70;89.50
31387;DHT22;69978;50.096;8.448;2023-06-14T15:00:23;29.60;88.60
31387;DHT22;69978;50.096;8.448;2023-06-14T15:02:48;29.60;88.10
31387;DHT22;69978;50.096;8.448;2023-06-14T15:05:14;29.40;88.50
31387;DHT22;69978;50.096;8.448;2023-06-14T15:07:40;29.50;89.70
31387;DHT22;69978;50.096;8.448;2023-06-14T15:10:06;29.50;90.20
31387;DHT22;69978;50.096;8.448;2023-06-14T15:12:32;29.50;90.60
31387;DHT22;69978;50.096;8.448;2023-06-14T15:14:58;29.50;90.10
31387;DHT22;69978;50.096;8.448;2023-06-14T15:17:23;29.50;90.30
31387;DHT22;69978;50.096;8.448;2023-06-14T15:19:50;29.50;89.80
31387;DHT22;69978;50.096;8.448;2023-06-14T15:22:16;29.60;89.90
31387;DHT22;69978;50.096;8.448;2023-06-14T15:24:42;29.50;90.90
31387;DHT22;69978;50.096;8.448;2023-06-14T15:27:13;29.30;90.10
31387;DHT22;69978;50.096;8.448;2023-06-14T15:29:41;28.90;90.60
31387;DHT22;69978;50.096;8.448;2023-06-14T15:32:07;28.80;90.30
31387;DHT22;69978;50.096;8.448;2023-06-14T15:34:33;29.00;90.50
31387;DHT22;69978;50.096;8.448;2023-06-14T15:36:59;28.90;90.20
31387;DHT22;69978;50.096;8.448;2023-06-14T15:39:25;28.90;91.20
31387;DHT22;69978;50.096;8.448;2023-06-14T15:41:52;28.90;91.30
31387;DHT22;69978;50.096;8.448;2023-06-14T15:44:18;28.70;91.00
31387;DHT22;69978;50.096;8.448;2023-06-14T15:46:43;28.50;91.30
31387;DHT22;69978;50.096;8.448;2023-06-14T15:49:10;28.40;91.40